sensor_id;sensor_type;location;lat;lon;timestamp;P1;durP1;ratioP1;P2;durP2;ratioP2
553;SDS011;59;48.778;9.156;2023-09-08T00:00:55;12.40;;;9.60;;
553;SDS011;59;48.778;9.156;2023-09-08T00:03:21;13.60;;;8.90;;
553;SDS011;59;48.778;9.156;2023-09-08T00:05:47;12.27;;;8.30;;
553;SDS011;59;48.778;9.156;2023-09-08T00:08:13;12.60;;;10.13;;
553;SDS011;59;48.778;9.156;2023-09-08T00:10:38;11.60;;;8.90;;
553;SDS011;59;48.778;9.156;2023-09-08T00:13:04;10.53;;;8.70;;
553;SDS011;59;48.778;9.156;2023-09-08T00:15:30;9.20;;;8.17;;
553;SDS011;59;48.778;9.156;2023-09-08T00:17:58;10.50;;;8.17;;
553;SDS011;59;48.778;9.156;2023-09-08T00:20:24;11.70;;;8.57;;
553;SDS011;59;48.778;9.156;2023-09-08T00:22:50;9.97;;;8.30;;
553;SDS011;59;48.778;9.156;2023-09-08T00:25:15;10.43;;;8.60;;
553;SDS011;59;48.778;9.156;2023-09-08T00:27:41;10.00;;;7.90;;
553;SDS011;59;48.778;9.156;2023-09-08T00:30:07;11.97;;;9.03;;
553;SDS011;59;48.778;9.156;2023-09-08T00:32:33;12.17;;;8.20;;
553;SDS011;59;48.778;9.156;2023-09-08T00:34:59;10.37;;;8.20;;
553;SDS011;59;48.778;9.156;2023-09-08T00:37:24;11.83;;;8.70;;
553;SDS011;59;48.778;9.156;2023-09-08T00:39:50;10.47;;;8.60;;
553;SDS011;59;48.778;9.156;2023-09-08T00:42:16;13.97;;;9.37;;
553;SDS011;59;48.778;9.156;2023-09-08T00:44:41;10.93;;;8.10;;
553;SDS011;59;48.778;9.156;2023-09-08T00:47:07;10.93;;;8.33;;
553;SDS011;59;48.778;9.156;2023-09-08T00:49:33;11.17;;;8.97;;
553;SDS011;59;48.778;9.156;2023-09-08T00:51:58;9.90;;;8.27;;
553;SDS011;59;48.778;9.156;2023-09-08T00:54:24;13.80;;;9.70;;
553;SDS011;59;48.778;9.156;2023-09-08T00:56:52;10.97;;;8.50;;
553;SDS011;59;48.778;9.156;2023-09-08T00:59:21;11.23;;;8.80;;
553;SDS011;59;48.778;9.156;2023-09-08T01:01:47;10.93;;;8.20;;
553;SDS011;59;48.778;9.156;2023-09-08T01:04:13;12.77;;;8.73;;
553;SDS011;59;48.778;9.156;2023-09-08T01:06:38;11.50;;;9.43;;
553;SDS011;59;48.778;9.156;2023-09-08T01:09:04;11.60;;;8.87;;
553;SDS011;59;48.778;9.156;2023-09-08T01:11:30;9.03;;;7.67;;
553;SDS011;59;48.778;9.156;2023-09-08T01:13:56;11.00;;;8.67;;
553;SDS011;59;48.778;9.156;2023-09-08T01:16:22;12.03;;;9.30;;
553;SDS011;59;48.778;9.156;2023-09-08T01:18:47;11.50;;;8.97;;
553;SDS011;59;48.778;9.156;2023-09-08T01:21:22;12.30;;;8.87;;
553;SDS011;59;48.778;9.156;2023-09-08T01:26:36;13.23;;;9.87;;
553;SDS011;59;48.778;9.156;2023-09-08T01:29:04;10.80;;;8.67;;
553;SDS011;59;48.778;9.156;2023-09-08T01:31:30;11.07;;;7.97;;
553;SDS011;59;48.778;9.156;2023-09-08T01:33:56;12.43;;;9.10;;
553;SDS011;59;48.778;9.156;2023-09-08T01:36:22;11.07;;;8.87;;
553;SDS011;59;48.778;9.156;2023-09-08T01:38:47;10.27;;;8.30;;
553;SDS011;59;48.778;9.156;2023-09-08T01:41:13;11.37;;;9.13;;
553;SDS011;59;48.778;9.156;2023-09-08T01:43:39;12.30;;;9.77;;
553;SDS011;59;48.778;9.156;2023-09-08T01:46:04;11.33;;;8.53;;
553;SDS011;59;48.778;9.156;2023-09-08T01:48:30;11.00;;;8.53;;
553;SDS011;59;48.778;9.156;2023-09-08T01:50:56;12.23;;;9.43;;
553;SDS011;59;48.778;9.156;2023-09-08T01:53:21;10.33;;;8.40;;
553;SDS011;59;48.778;9.156;2023-09-08T01:55:47;11.43;;;9.50;;
553;SDS011;59;48.778;9.156;2023-09-08T01:58:12;12.10;;;8.63;;
553;SDS011;59;48.778;9.156;2023-09-08T02:00:38;10.97;;;9.00;;
553;SDS011;59;48.778;9.156;2023-09-08T02:03:04;12.10;;;9.40;;
553;SDS011;59;48.778;9.156;2023-09-08T02:05:29;19.63;;;9.80;;
553;SDS011;59;48.778;9.156;2023-09-08T02:07:55;12.70;;;8.87;;
553;SDS011;59;48.778;9.156;2023-09-08T02:10:22;11.73;;;8.50;;
553;SDS011;59;48.778;9.156;2023-09-08T02:12:47;11.17;;;8.43;;
553;SDS011;59;48.778;9.156;2023-09-08T02:15:13;12.67;;;8.53;;
553;SDS011;59;48.778;9.156;2023-09-08T02:17:39;10.90;;;9.13;;
553;SDS011;59;48.778;9.156;2023-09-08T02:20:04;12.17;;;8.87;;
553;SDS011;59;48.778;9.156;2023-09-08T02:22:30;12.57;;;9.37;;
553;SDS011;59;48.778;9.156;2023-09-08T02:24:56;10.67;;;9.10;;
553;SDS011;59;48.778;9.156;2023-09-08T02:27:23;10.73;;;9.10;;
553;SDS011;59;48.778;9.156;2023-09-08T02:29:48;12.87;;;9.43;;
553;SDS011;59;48.778;9.156;2023-09-08T02:32:14;11.47;;;8.40;;
553;SDS011;59;48.778;9.156;2023-09-08T02:34:40;11.53;;;9.23;;
553;SDS011;59;48.778;9.156;2023-09-08T02:37:07;11.87;;;8.47;;
553;SDS011;59;48.778;9.156;2023-09-08T02:39:33;9.03;;;7.73;;
553;SDS011;59;48.778;9.156;2023-09-08T02:41:59;10.67;;;8.20;;
553;SDS011;59;48.778;9.156;2023-09-08T02:44:24;11.40;;;8.97;;
553;SDS011;59;48.778;9.156;2023-09-08T02:46:51;10.20;;;7.50;;
553;SDS011;59;48.778;9.156;2023-09-08T02:49:17;10.73;;;8.20;;
553;SDS011;59;48.778;9.156;2023-09-08T02:51:43;10.77;;;8.33;;
553;SDS011;59;48.778;9.156;2023-09-08T02:54:08;9.30;;;8.00;;
553;SDS011;59;48.778;9.156;2023-09-08T02:56:34;11.00;;;8.17;;
553;SDS011;59;48.778;9.156;2023-09-08T02:58:59;10.97;;;8.10;;
553;SDS011;59;48.778;9.156;2023-09-08T03:01:25;11.30;;;8.80;;
553;SDS011;59;48.778;9.156;2023-09-08T03:03:51;11.10;;;8.70;;
553;SDS011;59;48.778;9.156;2023-09-08T03:06:18;9.60;;;7.53;;
553;SDS011;59;48.778;9.156;2023-09-08T03:08:45;17.70;;;8.63;;
553;SDS011;59;48.778;9.156;2023-09-08T03:11:10;9.50;;;8.17;;
553;SDS011;59;48.778;9.156;2023-09-08T03:13:37;11.77;;;8.50;;
553;SDS011;59;48.778;9.156;2023-09-08T03:16:03;11.03;;;9.00;;
553;SDS011;59;48.778;9.156;2023-09-08T03:18:30;11.43;;;8.37;;
553;SDS011;59;48.778;9.156;2023-09-08T03:20:57;10.87;;;8.60;;
553;SDS011;59;48.778;9.156;2023-09-08T03:23:24;9.90;;;8.70;;
553;SDS011;59;48.778;9.156;2023-09-08T03:25:50;12.00;;;8.20;;
553;SDS011;59;48.778;9.156;2023-09-08T03:28:15;12.00;;;9.30;;
553;SDS011;59;48.778;9.156;2023-09-08T03:30:41;11.50;;;8.43;;
553;SDS011;59;48.778;9.156;2023-09-08T03:33:07;13.23;;;8.37;;
553;SDS011;59;48.778;9.156;2023-09-08T03:35:32;13.97;;;9.80;;
553;SDS011;59;48.778;9.156;2023-09-08T03:37:58;10.80;;;8.50;;
553;SDS011;59;48.778;9.156;2023-09-08T03:40:24;12.10;;;9.23;;
553;SDS011;59;48.778;9.156;2023-09-08T03:42:49;9.77;;;7.93;;
553;SDS011;59;48.778;9.156;2023-09-08T03:45:15;11.60;;;8.97;;
553;SDS011;59;48.778;9.156;2023-09-08T03:47:41;11.53;;;8.70;;
553;SDS011;59;48.778;9.156;2023-09-08T03:50:06;10.10;;;8.23;;
553;SDS011;59;48.778;9.156;2023-09-08T03:52:34;10.83;;;8.47;;
553;SDS011;59;48.778;9.156;2023-09-08T03:55:00;10.27;;;8.17;;
553;SDS011;59;48.778;9.156;2023-09-08T03:57:25;13.97;;;9.13;;
553;SDS011;59;48.778;9.156;2023-09-08T03:59:51;12.03;;;9.00;;
553;SDS011;59;48.778;9.156;2023-09-08T04:02:17;11.33;;;8.60;;
553;SDS011;59;48.778;9.156;2023-09-08T04:04:42;10.30;;;8.67;;
553;SDS011;59;48.778;9.156;2023-09-08T04:07:08;10.43;;;8.73;;
553;SDS011;59;48.778;9.156;2023-09-08T04:09:34;9.83;;;8.60;;
553;SDS011;59;48.778;9.156;2023-09-08T04:11:59;9.70;;;8.00;;
553;SDS011;59;48.778;9.156;2023-09-08T04:14:25;10.30;;;8.03;;
553;SDS011;59;48.778;9.156;2023-09-08T04:16:53;10.17;;;8.73;;
553;SDS011;59;48.778;9.156;2023-09-08T04:19:19;10.80;;;8.50;;
553;SDS011;59;48.778;9.156;2023-09-08T04:21:44;8.90;;;8.00;;
553;SDS011;59;48.778;9.156;2023-09-08T04:24:10;9.57;;;8.00;;
553;SDS011;59;48.778;9.156;2023-09-08T04:26:36;11.00;;;8.47;;
553;SDS011;59;48.778;9.156;2023-09-08T04:29:02;13.13;;;9.37;;
553;SDS011;59;48.778;9.156;2023-09-08T04:31:28;11.07;;;9.10;;
553;SDS011;59;48.778;9.156;2023-09-08T04:33:54;11.13;;;9.10;;
553;SDS011;59;48.778;9.156;2023-09-08T04:36:19;10.60;;;8.80;;
553;SDS011;59;48.778;9.156;2023-09-08T04:38:45;11.90;;;9.00;;
553;SDS011;59;48.778;9.156;2023-09-08T04:41:10;10.23;;;8.50;;
553;SDS011;59;48.778;9.156;2023-09-08T04:43:36;11.43;;;8.63;;
553;SDS011;59;48.778;9.156;2023-09-08T04:46:02;11.23;;;8.60;;
553;SDS011;59;48.778;9.156;2023-09-08T04:48:28;12.43;;;8.90;;
553;SDS011;59;48.778;9.156;2023-09-08T04:50:54;13.50;;;9.77;;
553;SDS011;59;48.778;9.156;2023-09-08T04:53:20;11.10;;;8.30;;
553;SDS011;59;48.778;9.156;2023-09-08T04:55:46;11.60;;;9.03;;
553;SDS011;59;48.778;9.156;2023-09-08T04:58:12;12.60;;;9.60;;
553;SDS011;59;48.778;9.156;2023-09-08T05:00:37;12.80;;;9.70;;
553;SDS011;59;48.778;9.156;2023-09-08T05:03:04;13.07;;;8.70;;
553;SDS011;59;48.778;9.156;2023-09-08T05:05:31;14.00;;;9.10;;
553;SDS011;59;48.778;9.156;2023-09-08T05:07:56;10.70;;;8.50;;
553;SDS011;59;48.778;9.156;2023-09-08T05:10:22;11.80;;;9.73;;
553;SDS011;59;48.778;9.156;2023-09-08T05:12:48;12.27;;;9.33;;
553;SDS011;59;48.778;9.156;2023-09-08T05:15:14;12.57;;;9.50;;
553;SDS011;59;48.778;9.156;2023-09-08T05:17:41;14.40;;;9.43;;
553;SDS011;59;48.778;9.156;2023-09-08T05:20:08;12.50;;;9.33;;
553;SDS011;59;48.778;9.156;2023-09-08T05:22:34;14.17;;;10.00;;
553;SDS011;59;48.778;9.156;2023-09-08T05:25:00;12.13;;;9.47;;
553;SDS011;59;48.778;9.156;2023-09-08T05:27:25;13.03;;;9.53;;
553;SDS011;59;48.778;9.156;2023-09-08T05:29:51;11.83;;;9.63;;
553;SDS011;59;48.778;9.156;2023-09-08T05:32:17;12.23;;;9.20;;
553;SDS011;59;48.778;9.156;2023-09-08T05:34:43;11.67;;;9.50;;
553;SDS011;59;48.778;9.156;2023-09-08T05:37:08;13.00;;;9.23;;
553;SDS011;59;48.778;9.156;2023-09-08T05:39:34;10.93;;;8.90;;
553;SDS011;59;48.778;9.156;2023-09-08T05:42:00;15.13;;;9.40;;
553;SDS011;59;48.778;9.156;2023-09-08T05:44:26;12.63;;;9.57;;
553;SDS011;59;48.778;9.156;2023-09-08T05:46:51;13.30;;;9.70;;
553;SDS011;59;48.778;9.156;2023-09-08T05:49:17;15.13;;;9.50;;
553;SDS011;59;48.778;9.156;2023-09-08T05:51:43;11.90;;;9.70;;
553;SDS011;59;48.778;9.156;2023-09-08T05:54:09;12.37;;;10.23;;
553;SDS011;59;48.778;9.156;2023-09-08T05:56:36;12.47;;;9.63;;
553;SDS011;59;48.778;9.156;2023-09-08T05:59:02;12.60;;;9.80;;
553;SDS011;59;48.778;9.156;2023-09-08T06:01:28;11.83;;;9.60;;
553;SDS011;59;48.778;9.156;2023-09-08T06:03:55;12.03;;;8.70;;
553;SDS011;59;48.778;9.156;2023-09-08T06:06:21;10.90;;;9.37;;
553;SDS011;59;48.778;9.156;2023-09-08T06:08:47;13.33;;;9.43;;
553;SDS011;59;48.778;9.156;2023-09-08T06:11:12;11.77;;;8.50;;
553;SDS011;59;48.778;9.156;2023-09-08T06:13:38;14.07;;;9.50;;
553;SDS011;59;48.778;9.156;2023-09-08T06:16:04;12.40;;;9.10;;
553;SDS011;59;48.778;9.156;2023-09-08T06:18:29;13.27;;;9.93;;
553;SDS011;59;48.778;9.156;2023-09-08T06:20:56;16.60;;;9.20;;
553;SDS011;59;48.778;9.156;2023-09-08T06:23:22;13.57;;;9.20;;
553;SDS011;59;48.778;9.156;2023-09-08T06:25:48;13.97;;;9.07;;
553;SDS011;59;48.778;9.156;2023-09-08T06:28:14;12.13;;;8.73;;
553;SDS011;59;48.778;9.156;2023-09-08T06:30:40;12.47;;;8.73;;
553;SDS011;59;48.778;9.156;2023-09-08T06:33:08;21.27;;;14.47;;
553;SDS011;59;48.778;9.156;2023-09-08T06:35:34;21.50;;;15.30;;
553;SDS011;59;48.778;9.156;2023-09-08T06:38:00;16.70;;;12.93;;
553;SDS011;59;48.778;9.156;2023-09-08T06:40:26;14.60;;;11.43;;
553;SDS011;59;48.778;9.156;2023-09-08T06:42:51;20.00;;;10.33;;
553;SDS011;59;48.778;9.156;2023-09-08T06:45:17;16.57;;;10.80;;
553;SDS011;59;48.778;9.156;2023-09-08T06:47:43;14.07;;;9.73;;
553;SDS011;59;48.778;9.156;2023-09-08T06:50:09;11.87;;;9.00;;
553;SDS011;59;48.778;9.156;2023-09-08T06:52:35;11.70;;;8.97;;
553;SDS011;59;48.778;9.156;2023-09-08T06:55:01;12.40;;;9.73;;
553;SDS011;59;48.778;9.156;2023-09-08T06:57:26;10.47;;;8.40;;
553;SDS011;59;48.778;9.156;2023-09-08T06:59:52;12.47;;;9.67;;
553;SDS011;59;48.778;9.156;2023-09-08T07:02:18;11.63;;;9.17;;
553;SDS011;59;48.778;9.156;2023-09-08T07:04:43;13.07;;;9.90;;
553;SDS011;59;48.778;9.156;2023-09-08T07:07:09;19.80;;;14.20;;
553;SDS011;59;48.778;9.156;2023-09-08T07:09:36;31.60;;;21.83;;
553;SDS011;59;48.778;9.156;2023-09-08T07:12:03;22.47;;;16.37;;
553;SDS011;59;48.778;9.156;2023-09-08T07:14:29;16.90;;;12.63;;
553;SDS011;59;48.778;9.156;2023-09-08T07:16:56;14.80;;;12.10;;
553;SDS011;59;48.778;9.156;2023-09-08T07:19:21;14.03;;;10.40;;
553;SDS011;59;48.778;9.156;2023-09-08T07:21:47;14.10;;;9.80;;
553;SDS011;59;48.778;9.156;2023-09-08T07:24:12;11.43;;;9.27;;
553;SDS011;59;48.778;9.156;2023-09-08T07:26:38;16.40;;;10.03;;
553;SDS011;59;48.778;9.156;2023-09-08T07:29:04;13.43;;;9.60;;
553;SDS011;59;48.778;9.156;2023-09-08T07:31:29;11.93;;;9.73;;
553;SDS011;59;48.778;9.156;2023-09-08T07:33:55;22.53;;;15.90;;
553;SDS011;59;48.778;9.156;2023-09-08T07:36:21;17.93;;;13.97;;
553;SDS011;59;48.778;9.156;2023-09-08T07:38:46;29.47;;;20.57;;
553;SDS011;59;48.778;9.156;2023-09-08T07:41:12;31.60;;;21.33;;
553;SDS011;59;48.778;9.156;2023-09-08T07:43:38;23.37;;;17.00;;
553;SDS011;59;48.778;9.156;2023-09-08T07:46:06;18.80;;;12.47;;
553;SDS011;59;48.778;9.156;2023-09-08T07:48:32;14.50;;;11.60;;
553;SDS011;59;48.778;9.156;2023-09-08T07:50:58;15.23;;;10.90;;
553;SDS011;59;48.778;9.156;2023-09-08T07:53:25;11.47;;;9.40;;
553;SDS011;59;48.778;9.156;2023-09-08T07:55:54;14.23;;;9.57;;
553;SDS011;59;48.778;9.156;2023-09-08T07:58:19;14.20;;;9.50;;
553;SDS011;59;48.778;9.156;2023-09-08T08:00:47;12.40;;;9.30;;
553;SDS011;59;48.778;9.156;2023-09-08T08:03:13;12.50;;;8.30;;
553;SDS011;59;48.778;9.156;2023-09-08T08:05:39;16.80;;;10.53;;
553;SDS011;59;48.778;9.156;2023-09-08T08:08:05;12.23;;;8.50;;
553;SDS011;59;48.778;9.156;2023-09-08T08:41:29;11.80;;;8.87;;
553;SDS011;59;48.778;9.156;2023-09-08T08:43:55;14.70;;;10.60;;
553;SDS011;59;48.778;9.156;2023-09-08T08:46:21;16.40;;;13.10;;
553;SDS011;59;48.778;9.156;2023-09-08T08:48:48;30.03;;;21.93;;
553;SDS011;59;48.778;9.156;2023-09-08T08:51:14;17.43;;;13.00;;
553;SDS011;59;48.778;9.156;2023-09-08T08:53:45;14.33;;;11.77;;
553;SDS011;59;48.778;9.156;2023-09-08T08:56:10;16.40;;;11.53;;
553;SDS011;59;48.778;9.156;2023-09-08T08:58:36;17.50;;;13.43;;
553;SDS011;59;48.778;9.156;2023-09-08T09:01:02;20.27;;;14.57;;
553;SDS011;59;48.778;9.156;2023-09-08T09:03:32;20.10;;;13.87;;
553;SDS011;59;48.778;9.156;2023-09-08T09:06:00;15.13;;;11.63;;
553;SDS011;59;48.778;9.156;2023-09-08T09:08:26;14.83;;;12.43;;
553;SDS011;59;48.778;9.156;2023-09-08T09:10:55;13.97;;;10.73;;
553;SDS011;59;48.778;9.156;2023-09-08T09:13:24;12.60;;;10.33;;
553;SDS011;59;48.778;9.156;2023-09-08T09:15:53;12.40;;;9.77;;
553;SDS011;59;48.778;9.156;2023-09-08T09:18:24;10.93;;;9.70;;
553;SDS011;59;48.778;9.156;2023-09-08T09:20:58;11.43;;;8.90;;
553;SDS011;59;48.778;9.156;2023-09-08T09:23:31;11.33;;;9.27;;
553;SDS011;59;48.778;9.156;2023-09-08T09:26:03;11.90;;;9.50;;
553;SDS011;59;48.778;9.156;2023-09-08T09:28:31;10.87;;;9.47;;
553;SDS011;59;48.778;9.156;2023-09-08T09:30:57;13.30;;;10.10;;
553;SDS011;59;48.778;9.156;2023-09-08T09:33:27;11.80;;;8.67;;
553;SDS011;59;48.778;9.156;2023-09-08T09:35:54;12.23;;;9.80;;
553;SDS011;59;48.778;9.156;2023-09-08T09:38:34;11.00;;;8.97;;
553;SDS011;59;48.778;9.156;2023-09-08T09:41:03;11.23;;;8.10;;
553;SDS011;59;48.778;9.156;2023-09-08T09:43:32;10.17;;;8.30;;
553;SDS011;59;48.778;9.156;2023-09-08T09:45:58;12.23;;;9.30;;
553;SDS011;59;48.778;9.156;2023-09-08T09:48:24;11.00;;;8.30;;
553;SDS011;59;48.778;9.156;2023-09-08T09:50:50;11.97;;;8.50;;
553;SDS011;59;48.778;9.156;2023-09-08T09:53:23;12.00;;;8.60;;
553;SDS011;59;48.778;9.156;2023-09-08T09:55:55;11.10;;;8.87;;
553;SDS011;59;48.778;9.156;2023-09-08T09:58:52;10.80;;;8.90;;
553;SDS011;59;48.778;9.156;2023-09-08T10:01:43;11.27;;;8.70;;
553;SDS011;59;48.778;9.156;2023-09-08T10:04:09;14.70;;;9.70;;
553;SDS011;59;48.778;9.156;2023-09-08T10:06:55;11.90;;;8.60;;
553;SDS011;59;48.778;9.156;2023-09-08T10:09:23;14.73;;;9.00;;
553;SDS011;59;48.778;9.156;2023-09-08T10:11:49;20.37;;;9.30;;
553;SDS011;59;48.778;9.156;2023-09-08T10:14:15;10.60;;;8.57;;
553;SDS011;59;48.778;9.156;2023-09-08T10:16:46;10.60;;;8.70;;
553;SDS011;59;48.778;9.156;2023-09-08T10:19:14;14.07;;;9.67;;
553;SDS011;59;48.778;9.156;2023-09-08T10:21:42;10.20;;;8.50;;
553;SDS011;59;48.778;9.156;2023-09-08T10:24:29;9.60;;;8.13;;
553;SDS011;59;48.778;9.156;2023-09-08T10:27:09;16.13;;;12.80;;
553;SDS011;59;48.778;9.156;2023-09-08T10:29:36;16.07;;;13.23;;
553;SDS011;59;48.778;9.156;2023-09-08T10:32:02;16.10;;;10.97;;
553;SDS011;59;48.778;9.156;2023-09-08T10:34:30;12.47;;;9.90;;
553;SDS011;59;48.778;9.156;2023-09-08T10:36:56;11.80;;;9.60;;
553;SDS011;59;48.778;9.156;2023-09-08T10:39:28;13.37;;;9.03;;
553;SDS011;59;48.778;9.156;2023-09-08T10:42:24;13.27;;;8.63;;
553;SDS011;59;48.778;9.156;2023-09-08T10:47:35;9.60;;;9.03;;
553;SDS011;59;48.778;9.156;2023-09-08T10:50:32;10.17;;;8.50;;
553;SDS011;59;48.778;9.156;2023-09-08T10:55:45;10.40;;;8.60;;
553;SDS011;59;48.778;9.156;2023-09-08T10:58:39;10.80;;;8.60;;
553;SDS011;59;48.778;9.156;2023-09-08T11:01:07;12.33;;;9.10;;
553;SDS011;59;48.778;9.156;2023-09-08T11:06:03;10.40;;;8.20;;
553;SDS011;59;48.778;9.156;2023-09-08T11:08:29;10.63;;;7.97;;
553;SDS011;59;48.778;9.156;2023-09-08T11:10:55;9.37;;;7.87;;
553;SDS011;59;48.778;9.156;2023-09-08T11:13:30;10.83;;;7.57;;
553;SDS011;59;48.778;9.156;2023-09-08T11:16:08;8.90;;;7.33;;
553;SDS011;59;48.778;9.156;2023-09-08T11:18:34;9.37;;;7.40;;
553;SDS011;59;48.778;9.156;2023-09-08T11:21:01;9.23;;;7.47;;
553;SDS011;59;48.778;9.156;2023-09-08T11:23:27;8.07;;;7.57;;
553;SDS011;59;48.778;9.156;2023-09-08T11:25:53;8.80;;;7.53;;
553;SDS011;59;48.778;9.156;2023-09-08T11:28:26;7.80;;;7.40;;
553;SDS011;59;48.778;9.156;2023-09-08T11:30:53;10.83;;;7.90;;
553;SDS011;59;48.778;9.156;2023-09-08T11:33:20;8.40;;;7.27;;
553;SDS011;59;48.778;9.156;2023-09-08T11:35:54;10.20;;;7.17;;
553;SDS011;59;48.778;9.156;2023-09-08T11:38:28;7.10;;;6.70;;
553;SDS011;59;48.778;9.156;2023-09-08T11:41:00;10.10;;;6.80;;
553;SDS011;59;48.778;9.156;2023-09-08T11:43:28;9.40;;;7.37;;
553;SDS011;59;48.778;9.156;2023-09-08T11:45:59;10.80;;;8.07;;
553;SDS011;59;48.778;9.156;2023-09-08T11:48:25;9.40;;;7.50;;
553;SDS011;59;48.778;9.156;2023-09-08T11:50:58;8.00;;;7.60;;
553;SDS011;59;48.778;9.156;2023-09-08T11:53:29;9.00;;;8.37;;
553;SDS011;59;48.778;9.156;2023-09-08T11:56:08;8.00;;;7.50;;
553;SDS011;59;48.778;9.156;2023-09-08T11:58:40;10.00;;;8.07;;
553;SDS011;59;48.778;9.156;2023-09-08T12:01:10;11.50;;;8.37;;
553;SDS011;59;48.778;9.156;2023-09-08T12:03:50;9.07;;;7.47;;
553;SDS011;59;48.778;9.156;2023-09-08T12:06:17;10.90;;;7.93;;
553;SDS011;59;48.778;9.156;2023-09-08T12:08:46;8.20;;;7.53;;
553;SDS011;59;48.778;9.156;2023-09-08T12:11:13;8.90;;;7.70;;
553;SDS011;59;48.778;9.156;2023-09-08T12:13:42;9.10;;;8.00;;
553;SDS011;59;48.778;9.156;2023-09-08T12:16:20;8.97;;;7.87;;
553;SDS011;59;48.778;9.156;2023-09-08T12:18:49;11.10;;;8.00;;
553;SDS011;59;48.778;9.156;2023-09-08T12:21:22;9.87;;;8.27;;
553;SDS011;59;48.778;9.156;2023-09-08T12:23:48;9.63;;;7.77;;
553;SDS011;59;48.778;9.156;2023-09-08T12:26:18;8.97;;;7.50;;
553;SDS011;59;48.778;9.156;2023-09-08T12:28:44;9.40;;;8.23;;
553;SDS011;59;48.778;9.156;2023-09-08T12:31:11;9.27;;;7.93;;
553;SDS011;59;48.778;9.156;2023-09-08T12:33:38;10.13;;;7.90;;
553;SDS011;59;48.778;9.156;2023-09-08T12:36:13;9.27;;;7.50;;
553;SDS011;59;48.778;9.156;2023-09-08T12:38:40;10.53;;;8.67;;
553;SDS011;59;48.778;9.156;2023-09-08T12:41:06;10.87;;;8.57;;
553;SDS011;59;48.778;9.156;2023-09-08T12:43:33;11.67;;;8.37;;
553;SDS011;59;48.778;9.156;2023-09-08T12:46:00;9.73;;;8.40;;
553;SDS011;59;48.778;9.156;2023-09-08T12:48:26;9.90;;;8.63;;
553;SDS011;59;48.778;9.156;2023-09-08T12:50:51;8.53;;;8.03;;
553;SDS011;59;48.778;9.156;2023-09-08T12:53:20;10.27;;;8.27;;
553;SDS011;59;48.778;9.156;2023-09-08T12:55:48;10.20;;;8.40;;
553;SDS011;59;48.778;9.156;2023-09-08T12:58:18;9.73;;;8.20;;
553;SDS011;59;48.778;9.156;2023-09-08T13:00:44;9.63;;;7.83;;
553;SDS011;59;48.778;9.156;2023-09-08T13:03:10;9.33;;;8.40;;
553;SDS011;59;48.778;9.156;2023-09-08T13:05:35;10.83;;;8.20;;
553;SDS011;59;48.778;9.156;2023-09-08T13:08:03;11.57;;;9.10;;
553;SDS011;59;48.778;9.156;2023-09-08T13:10:29;11.63;;;9.10;;
553;SDS011;59;48.778;9.156;2023-09-08T13:12:55;11.90;;;8.20;;
553;SDS011;59;48.778;9.156;2023-09-08T13:15:21;9.40;;;8.20;;
553;SDS011;59;48.778;9.156;2023-09-08T13:17:50;10.77;;;8.50;;
553;SDS011;59;48.778;9.156;2023-09-08T13:20:16;7.67;;;7.27;;
553;SDS011;59;48.778;9.156;2023-09-08T13:22:42;9.60;;;8.33;;
553;SDS011;59;48.778;9.156;2023-09-08T13:25:19;8.77;;;7.90;;
553;SDS011;59;48.778;9.156;2023-09-08T13:27:45;9.67;;;8.10;;
553;SDS011;59;48.778;9.156;2023-09-08T13:30:14;9.73;;;7.97;;
553;SDS011;59;48.778;9.156;2023-09-08T13:32:40;8.40;;;7.40;;
553;SDS011;59;48.778;9.156;2023-09-08T13:35:09;8.80;;;7.73;;
553;SDS011;59;48.778;9.156;2023-09-08T13:37:35;8.37;;;7.60;;
553;SDS011;59;48.778;9.156;2023-09-08T13:40:03;10.93;;;8.00;;
553;SDS011;59;48.778;9.156;2023-09-08T13:42:28;13.03;;;7.40;;
553;SDS011;59;48.778;9.156;2023-09-08T13:44:54;9.17;;;7.67;;
553;SDS011;59;48.778;9.156;2023-09-08T13:47:20;8.70;;;7.20;;
553;SDS011;59;48.778;9.156;2023-09-08T13:49:46;8.17;;;7.67;;
553;SDS011;59;48.778;9.156;2023-09-08T13:52:12;9.90;;;8.07;;
553;SDS011;59;48.778;9.156;2023-09-08T13:54:37;8.00;;;7.40;;
553;SDS011;59;48.778;9.156;2023-09-08T13:57:04;10.60;;;7.30;;
553;SDS011;59;48.778;9.156;2023-09-08T13:59:30;11.37;;;7.67;;
553;SDS011;59;48.778;9.156;2023-09-08T14:01:56;8.27;;;7.60;;
553;SDS011;59;48.778;9.156;2023-09-08T14:04:26;9.23;;;7.53;;
553;SDS011;59;48.778;9.156;2023-09-08T14:06:52;9.83;;;7.50;;
553;SDS011;59;48.778;9.156;2023-09-08T14:09:18;12.30;;;7.60;;
553;SDS011;59;48.778;9.156;2023-09-08T14:11:44;9.63;;;7.80;;
553;SDS011;59;48.778;9.156;2023-09-08T14:14:09;8.03;;;7.03;;
553;SDS011;59;48.778;9.156;2023-09-08T14:16:35;11.10;;;7.27;;
553;SDS011;59;48.778;9.156;2023-09-08T14:19:01;7.53;;;6.93;;
553;SDS011;59;48.778;9.156;2023-09-08T14:21:27;8.30;;;6.77;;
553;SDS011;59;48.778;9.156;2023-09-08T14:23:52;8.27;;;6.87;;
553;SDS011;59;48.778;9.156;2023-09-08T14:26:18;8.50;;;7.40;;
553;SDS011;59;48.778;9.156;2023-09-08T14:28:45;7.67;;;7.23;;
553;SDS011;59;48.778;9.156;2023-09-08T14:31:11;8.13;;;7.60;;
553;SDS011;59;48.778;9.156;2023-09-08T14:33:37;8.20;;;6.83;;
553;SDS011;59;48.778;9.156;2023-09-08T14:36:02;10.20;;;6.70;;
553;SDS011;59;48.778;9.156;2023-09-08T14:38:28;7.70;;;7.37;;
553;SDS011;59;48.778;9.156;2023-09-08T14:40:55;7.90;;;7.17;;
553;SDS011;59;48.778;9.156;2023-09-08T14:43:25;9.63;;;7.70;;
553;SDS011;59;48.778;9.156;2023-09-08T14:45:51;9.07;;;7.73;;
553;SDS011;59;48.778;9.156;2023-09-08T14:48:17;8.03;;;6.83;;
553;SDS011;59;48.778;9.156;2023-09-08T14:50:43;7.60;;;6.90;;
553;SDS011;59;48.778;9.156;2023-09-08T14:53:09;8.57;;;7.13;;
553;SDS011;59;48.778;9.156;2023-09-08T14:55:35;8.20;;;7.20;;
553;SDS011;59;48.778;9.156;2023-09-08T14:58:00;8.93;;;7.40;;
553;SDS011;59;48.778;9.156;2023-09-08T15:00:26;10.73;;;7.00;;
553;SDS011;59;48.778;9.156;2023-09-08T15:02:52;8.70;;;7.27;;
553;SDS011;59;48.778;9.156;2023-09-08T15:05:18;7.53;;;7.00;;
553;SDS011;59;48.778;9.156;2023-09-08T15:07:43;9.83;;;7.30;;
553;SDS011;59;48.778;9.156;2023-09-08T15:10:09;8.03;;;7.03;;
553;SDS011;59;48.778;9.156;2023-09-08T15:12:35;8.83;;;7.80;;
553;SDS011;59;48.778;9.156;2023-09-08T15:15:01;8.20;;;6.97;;
553;SDS011;59;48.778;9.156;2023-09-08T15:17:28;7.90;;;6.77;;
553;SDS011;59;48.778;9.156;2023-09-08T15:19:54;7.97;;;7.10;;
553;SDS011;59;48.778;9.156;2023-09-08T15:22:19;8.83;;;7.30;;
553;SDS011;59;48.778;9.156;2023-09-08T15:24:45;8.63;;;7.10;;
553;SDS011;59;48.778;9.156;2023-09-08T15:27:11;9.23;;;6.67;;
553;SDS011;59;48.778;9.156;2023-09-08T15:29:37;7.77;;;6.67;;
553;SDS011;59;48.778;9.156;2023-09-08T15:32:02;8.53;;;7.67;;
553;SDS011;59;48.778;9.156;2023-09-08T15:34:28;10.90;;;7.30;;
553;SDS011;59;48.778;9.156;2023-09-08T15:36:54;7.50;;;7.10;;
553;SDS011;59;48.778;9.156;2023-09-08T15:39:20;9.00;;;7.47;;
553;SDS011;59;48.778;9.156;2023-09-08T15:41:46;9.67;;;6.97;;
553;SDS011;59;48.778;9.156;2023-09-08T15:44:12;8.63;;;7.03;;
553;SDS011;59;48.778;9.156;2023-09-08T15:46:39;7.57;;;6.60;;
553;SDS011;59;48.778;9.156;2023-09-08T15:49:05;7.73;;;6.97;;
553;SDS011;59;48.778;9.156;2023-09-08T15:51:30;6.40;;;6.00;;
553;SDS011;59;48.778;9.156;2023-09-08T15:53:56;6.77;;;6.37;;
553;SDS011;59;48.778;9.156;2023-09-08T15:56:22;9.27;;;7.10;;
553;SDS011;59;48.778;9.156;2023-09-08T15:58:48;7.73;;;6.43;;
553;SDS011;59;48.778;9.156;2023-09-08T16:01:14;8.23;;;6.97;;
553;SDS011;59;48.778;9.156;2023-09-08T16:03:39;10.53;;;7.17;;
553;SDS011;59;48.778;9.156;2023-09-08T16:06:05;7.73;;;6.60;;
553;SDS011;59;48.778;9.156;2023-09-08T16:08:31;7.20;;;6.60;;
553;SDS011;59;48.778;9.156;2023-09-08T16:10:58;8.23;;;7.10;;
553;SDS011;59;48.778;9.156;2023-09-08T16:13:25;7.93;;;7.10;;
553;SDS011;59;48.778;9.156;2023-09-08T16:15:50;7.77;;;6.67;;
553;SDS011;59;48.778;9.156;2023-09-08T16:18:16;8.50;;;7.10;;
553;SDS011;59;48.778;9.156;2023-09-08T16:20:42;8.77;;;7.33;;
553;SDS011;59;48.778;9.156;2023-09-08T16:23:07;8.30;;;6.93;;
553;SDS011;59;48.778;9.156;2023-09-08T16:25:34;8.77;;;7.07;;
553;SDS011;59;48.778;9.156;2023-09-08T16:28:01;7.23;;;6.87;;